sensor_id;sensor_type;location;lat;lon;timestamp;P1;durP1;ratioP1;P2;durP2;ratioP2
8331;SDS011;4203;48.144;14.118;2023-06-22T00:00:56;6.03;;;3.75;;
8331;SDS011;4203;48.144;14.118;2023-06-22T00:03:24;10.70;;;3.90;;
8331;SDS011;4203;48.144;14.118;2023-06-22T00:05:53;7.18;;;3.72;;
8331;SDS011;4203;48.144;14.118;2023-06-22T00:08:21;4.50;;;3.55;;
8331;SDS011;4203;48.144;14.118;2023-06-22T00:10:48;5.22;;;3.53;;
8331;SDS011;4203;48.144;14.118;2023-06-22T00:13:16;4.50;;;3.42;;
8331;SDS011;4203;48.144;14.118;2023-06-22T00:15:43;9.20;;;3.60;;
8331;SDS011;4203;48.144;14.118;2023-06-22T00:18:11;6.35;;;4.00;;
8331;SDS011;4203;48.144;14.118;2023-06-22T00:20:39;4.60;;;3.72;;
8331;SDS011;4203;48.144;14.118;2023-06-22T00:23:09;7.72;;;3.50;;
8331;SDS011;4203;48.144;14.118;2023-06-22T00:25:36;5.20;;;3.58;;
8331;SDS011;4203;48.144;14.118;2023-06-22T00:28:05;7.63;;;3.60;;
8331;SDS011;4203;48.144;14.118;2023-06-22T00:30:33;6.53;;;3.70;;
8331;SDS011;4203;48.144;14.118;2023-06-22T00:33:00;3.83;;;3.20;;
8331;SDS011;4203;48.144;14.118;2023-06-22T00:35:28;4.22;;;3.60;;
8331;SDS011;4203;48.144;14.118;2023-06-22T00:37:55;3.85;;;3.28;;
8331;SDS011;4203;48.144;14.118;2023-06-22T00:40:27;6.60;;;3.45;;
8331;SDS011;4203;48.144;14.118;2023-06-22T00:42:54;7.63;;;3.35;;
8331;SDS011;4203;48.144;14.118;2023-06-22T00:45:22;5.15;;;3.35;;
8331;SDS011;4203;48.144;14.118;2023-06-22T00:47:49;6.35;;;3.53;;
8331;SDS011;4203;48.144;14.118;2023-06-22T00:50:18;7.20;;;4.18;;
8331;SDS011;4203;48.144;14.118;2023-06-22T00:52:48;9.02;;;3.97;;
8331;SDS011;4203;48.144;14.118;2023-06-22T00:55:18;8.75;;;3.92;;
8331;SDS011;4203;48.144;14.118;2023-06-22T00:57:47;9.45;;;4.10;;
8331;SDS011;4203;48.144;14.118;2023-06-22T01:00:15;6.60;;;3.67;;
8331;SDS011;4203;48.144;14.118;2023-06-22T01:02:44;3.95;;;3.55;;
8331;SDS011;4203;48.144;14.118;2023-06-22T01:05:14;9.48;;;3.95;;
8331;SDS011;4203;48.144;14.118;2023-06-22T01:07:44;8.05;;;3.90;;
8331;SDS011;4203;48.144;14.118;2023-06-22T01:10:24;5.35;;;3.35;;
8331;SDS011;4203;48.144;14.118;2023-06-22T01:13:02;6.68;;;3.75;;
8331;SDS011;4203;48.144;14.118;2023-06-22T01:15:39;5.25;;;3.72;;
8331;SDS011;4203;48.144;14.118;2023-06-22T01:18:14;6.95;;;3.60;;
8331;SDS011;4203;48.144;14.118;2023-06-22T01:20:42;10.43;;;3.90;;
8331;SDS011;4203;48.144;14.118;2023-06-22T01:23:11;6.07;;;3.60;;
8331;SDS011;4203;48.144;14.118;2023-06-22T01:25:48;5.93;;;3.60;;
8331;SDS011;4203;48.144;14.118;2023-06-22T01:28:39;4.55;;;3.17;;
8331;SDS011;4203;48.144;14.118;2023-06-22T01:31:10;8.75;;;3.90;;
8331;SDS011;4203;48.144;14.118;2023-06-22T01:33:41;3.72;;;3.15;;
8331;SDS011;4203;48.144;14.118;2023-06-22T01:36:10;4.38;;;3.55;;
8331;SDS011;4203;48.144;14.118;2023-06-22T01:38:37;7.07;;;3.60;;
8331;SDS011;4203;48.144;14.118;2023-06-22T01:41:05;5.88;;;3.67;;
8331;SDS011;4203;48.144;14.118;2023-06-22T01:43:33;7.90;;;3.70;;
8331;SDS011;4203;48.144;14.118;2023-06-22T01:46:03;4.63;;;3.80;;
8331;SDS011;4203;48.144;14.118;2023-06-22T01:48:31;5.85;;;3.97;;
8331;SDS011;4203;48.144;14.118;2023-06-22T01:50:58;8.90;;;4.00;;
8331;SDS011;4203;48.144;14.118;2023-06-22T01:53:25;6.43;;;3.80;;
8331;SDS011;4203;48.144;14.118;2023-06-22T01:55:53;6.90;;;3.97;;
8331;SDS011;4203;48.144;14.118;2023-06-22T01:58:20;4.32;;;3.33;;
8331;SDS011;4203;48.144;14.118;2023-06-22T02:00:51;7.50;;;4.22;;
8331;SDS011;4203;48.144;14.118;2023-06-22T02:03:26;9.60;;;3.63;;
8331;SDS011;4203;48.144;14.118;2023-06-22T02:05:58;6.68;;;3.60;;
8331;SDS011;4203;48.144;14.118;2023-06-22T02:08:30;7.32;;;3.50;;
8331;SDS011;4203;48.144;14.118;2023-06-22T02:11:02;6.70;;;4.05;;
8331;SDS011;4203;48.144;14.118;2023-06-22T02:13:32;6.25;;;3.92;;
8331;SDS011;4203;48.144;14.118;2023-06-22T02:16:00;6.07;;;3.65;;
8331;SDS011;4203;48.144;14.118;2023-06-22T02:18:29;6.50;;;3.28;;
8331;SDS011;4203;48.144;14.118;2023-06-22T02:20:56;9.40;;;3.80;;
8331;SDS011;4203;48.144;14.118;2023-06-22T02:23:24;7.40;;;3.70;;
8331;SDS011;4203;48.144;14.118;2023-06-22T02:25:51;6.70;;;3.83;;
8331;SDS011;4203;48.144;14.118;2023-06-22T02:28:18;4.30;;;3.90;;
8331;SDS011;4203;48.144;14.118;2023-06-22T02:30:45;7.97;;;4.43;;
8331;SDS011;4203;48.144;14.118;2023-06-22T02:33:12;5.10;;;3.90;;
8331;SDS011;4203;48.144;14.118;2023-06-22T02:35:41;6.28;;;4.07;;
8331;SDS011;4203;48.144;14.118;2023-06-22T02:38:12;5.10;;;4.05;;
8331;SDS011;4203;48.144;14.118;2023-06-22T02:40:40;8.32;;;4.03;;
8331;SDS011;4203;48.144;14.118;2023-06-22T02:43:07;10.23;;;4.13;;
8331;SDS011;4203;48.144;14.118;2023-06-22T02:45:35;7.18;;;4.30;;
8331;SDS011;4203;48.144;14.118;2023-06-22T02:48:02;10.00;;;3.80;;
8331;SDS011;4203;48.144;14.118;2023-06-22T02:50:29;6.68;;;4.40;;
8331;SDS011;4203;48.144;14.118;2023-06-22T02:52:58;11.15;;;4.53;;
8331;SDS011;4203;48.144;14.118;2023-06-22T02:55:25;9.00;;;4.55;;
8331;SDS011;4203;48.144;14.118;2023-06-22T02:57:53;6.45;;;4.18;;
8331;SDS011;4203;48.144;14.118;2023-06-22T03:00:20;7.50;;;4.28;;
8331;SDS011;4203;48.144;14.118;2023-06-22T03:02:47;6.93;;;3.88;;
8331;SDS011;4203;48.144;14.118;2023-06-22T03:05:15;8.55;;;4.38;;
8331;SDS011;4203;48.144;14.118;2023-06-22T03:07:43;8.05;;;4.47;;
8331;SDS011;4203;48.144;14.118;2023-06-22T03:10:12;7.03;;;4.60;;
8331;SDS011;4203;48.144;14.118;2023-06-22T03:12:40;7.25;;;4.53;;
8331;SDS011;4203;48.144;14.118;2023-06-22T03:15:09;9.13;;;4.35;;
8331;SDS011;4203;48.144;14.118;2023-06-22T03:17:38;7.55;;;3.75;;
8331;SDS011;4203;48.144;14.118;2023-06-22T03:20:07;6.64;;;4.20;;
8331;SDS011;4203;48.144;14.118;2023-06-22T03:22:36;7.68;;;4.10;;
8331;SDS011;4203;48.144;14.118;2023-06-22T03:25:04;5.13;;;3.60;;
8331;SDS011;4203;48.144;14.118;2023-06-22T03:27:36;7.93;;;4.43;;
8331;SDS011;4203;48.144;14.118;2023-06-22T03:30:04;7.72;;;4.60;;
8331;SDS011;4203;48.144;14.118;2023-06-22T03:32:32;11.73;;;4.65;;
8331;SDS011;4203;48.144;14.118;2023-06-22T03:34:59;4.10;;;3.63;;
8331;SDS011;4203;48.144;14.118;2023-06-22T03:37:26;11.25;;;4.53;;
8331;SDS011;4203;48.144;14.118;2023-06-22T03:39:54;6.18;;;3.80;;
8331;SDS011;4203;48.144;14.118;2023-06-22T03:42:21;8.23;;;4.50;;
8331;SDS011;4203;48.144;14.118;2023-06-22T03:44:50;6.78;;;4.53;;
8331;SDS011;4203;48.144;14.118;2023-06-22T03:47:17;7.90;;;4.20;;
8331;SDS011;4203;48.144;14.118;2023-06-22T03:49:44;8.05;;;4.45;;
8331;SDS011;4203;48.144;14.118;2023-06-22T03:52:12;9.68;;;4.40;;
8331;SDS011;4203;48.144;14.118;2023-06-22T03:54:39;5.53;;;4.05;;
8331;SDS011;4203;48.144;14.118;2023-06-22T03:57:06;7.90;;;4.57;;
8331;SDS011;4203;48.144;14.118;2023-06-22T03:59:33;10.32;;;4.35;;
8331;SDS011;4203;48.144;14.118;2023-06-22T04:02:03;5.80;;;4.18;;
8331;SDS011;4203;48.144;14.118;2023-06-22T04:04:30;11.48;;;4.13;;
8331;SDS011;4203;48.144;14.118;2023-06-22T04:06:58;17.15;;;6.30;;
8331;SDS011;4203;48.144;14.118;2023-06-22T04:09:26;10.70;;;5.50;;
8331;SDS011;4203;48.144;14.118;2023-06-22T04:11:53;10.80;;;4.80;;
8331;SDS011;4203;48.144;14.118;2023-06-22T04:14:20;9.80;;;5.07;;
8331;SDS011;4203;48.144;14.118;2023-06-22T04:16:47;8.15;;;5.22;;
8331;SDS011;4203;48.144;14.118;2023-06-22T04:19:16;6.07;;;4.40;;
8331;SDS011;4203;48.144;14.118;2023-06-22T04:21:43;9.48;;;4.38;;
8331;SDS011;4203;48.144;14.118;2023-06-22T04:24:10;6.90;;;4.65;;
8331;SDS011;4203;48.144;14.118;2023-06-22T04:26:38;7.32;;;4.15;;
8331;SDS011;4203;48.144;14.118;2023-06-22T04:29:06;7.28;;;4.53;;
8331;SDS011;4203;48.144;14.118;2023-06-22T04:31:34;7.10;;;4.55;;
8331;SDS011;4203;48.144;14.118;2023-06-22T04:34:02;7.82;;;4.97;;
8331;SDS011;4203;48.144;14.118;2023-06-22T04:36:34;7.45;;;4.82;;
8331;SDS011;4203;48.144;14.118;2023-06-22T04:39:05;9.95;;;4.85;;
8331;SDS011;4203;48.144;14.118;2023-06-22T04:41:35;9.00;;;4.75;;
8331;SDS011;4203;48.144;14.118;2023-06-22T04:44:08;9.10;;;5.47;;
8331;SDS011;4203;48.144;14.118;2023-06-22T04:46:36;8.63;;;5.45;;
8331;SDS011;4203;48.144;14.118;2023-06-22T04:49:07;14.52;;;5.65;;
8331;SDS011;4203;48.144;14.118;2023-06-22T04:51:41;12.00;;;6.03;;
8331;SDS011;4203;48.144;14.118;2023-06-22T04:54:09;10.23;;;6.20;;
8331;SDS011;4203;48.144;14.118;2023-06-22T04:56:36;12.77;;;6.00;;
8331;SDS011;4203;48.144;14.118;2023-06-22T04:59:06;17.88;;;7.65;;
8331;SDS011;4203;48.144;14.118;2023-06-22T05:01:38;16.40;;;6.60;;
8331;SDS011;4203;48.144;14.118;2023-06-22T05:04:05;18.05;;;6.50;;
8331;SDS011;4203;48.144;14.118;2023-06-22T05:06:32;16.23;;;6.70;;
8331;SDS011;4203;48.144;14.118;2023-06-22T05:09:01;9.93;;;5.78;;
8331;SDS011;4203;48.144;14.118;2023-06-22T05:11:30;11.27;;;5.30;;
8331;SDS011;4203;48.144;14.118;2023-06-22T05:13:57;8.13;;;5.63;;
8331;SDS011;4203;48.144;14.118;2023-06-22T05:16:24;9.50;;;5.35;;
8331;SDS011;4203;48.144;14.118;2023-06-22T05:18:52;8.80;;;5.10;;
8331;SDS011;4203;48.144;14.118;2023-06-22T05:21:23;13.40;;;5.72;;
8331;SDS011;4203;48.144;14.118;2023-06-22T05:23:50;6.32;;;4.57;;
8331;SDS011;4203;48.144;14.118;2023-06-22T05:26:20;14.30;;;5.20;;
8331;SDS011;4203;48.144;14.118;2023-06-22T05:28:47;8.20;;;4.78;;
8331;SDS011;4203;48.144;14.118;2023-06-22T05:31:15;8.60;;;5.28;;
8331;SDS011;4203;48.144;14.118;2023-06-22T05:33:43;8.93;;;4.75;;
8331;SDS011;4203;48.144;14.118;2023-06-22T05:36:10;12.60;;;5.22;;
8331;SDS011;4203;48.144;14.118;2023-06-22T05:38:37;12.02;;;5.28;;
8331;SDS011;4203;48.144;14.118;2023-06-22T05:41:05;10.48;;;5.85;;
8331;SDS011;4203;48.144;14.118;2023-06-22T05:43:34;11.57;;;6.28;;
8331;SDS011;4203;48.144;14.118;2023-06-22T05:46:01;13.13;;;5.97;;
8331;SDS011;4203;48.144;14.118;2023-06-22T05:48:28;8.23;;;5.82;;
8331;SDS011;4203;48.144;14.118;2023-06-22T05:50:56;9.13;;;4.53;;
8331;SDS011;4203;48.144;14.118;2023-06-22T05:53:24;9.65;;;5.05;;
8331;SDS011;4203;48.144;14.118;2023-06-22T05:55:51;9.73;;;4.55;;
8331;SDS011;4203;48.144;14.118;2023-06-22T05:58:18;11.45;;;5.82;;
8331;SDS011;4203;48.144;14.118;2023-06-22T06:00:47;7.85;;;4.38;;
8331;SDS011;4203;48.144;14.118;2023-06-22T06:03:14;8.32;;;4.80;;
8331;SDS011;4203;48.144;14.118;2023-06-22T06:05:42;12.20;;;4.93;;
8331;SDS011;4203;48.144;14.118;2023-06-22T06:08:10;16.00;;;5.75;;
8331;SDS011;4203;48.144;14.118;2023-06-22T06:10:38;9.68;;;4.97;;
8331;SDS011;4203;48.144;14.118;2023-06-22T06:13:05;10.30;;;5.43;;
8331;SDS011;4203;48.144;14.118;2023-06-22T06:15:34;8.60;;;5.15;;
8331;SDS011;4203;48.144;14.118;2023-06-22T06:18:03;10.48;;;4.80;;
8331;SDS011;4203;48.144;14.118;2023-06-22T06:20:32;12.88;;;5.05;;
8331;SDS011;4203;48.144;14.118;2023-06-22T06:22:59;11.10;;;5.32;;
8331;SDS011;4203;48.144;14.118;2023-06-22T06:25:27;12.00;;;4.90;;
8331;SDS011;4203;48.144;14.118;2023-06-22T06:27:54;11.25;;;5.30;;
8331;SDS011;4203;48.144;14.118;2023-06-22T06:30:21;12.43;;;4.78;;
8331;SDS011;4203;48.144;14.118;2023-06-22T06:32:49;9.95;;;5.05;;
8331;SDS011;4203;48.144;14.118;2023-06-22T06:35:18;10.13;;;5.15;;
8331;SDS011;4203;48.144;14.118;2023-06-22T06:37:45;13.25;;;5.43;;
8331;SDS011;4203;48.144;14.118;2023-06-22T06:40:14;11.32;;;5.05;;
8331;SDS011;4203;48.144;14.118;2023-06-22T06:42:43;12.50;;;4.78;;
8331;SDS011;4203;48.144;14.118;2023-06-22T06:45:11;11.90;;;4.97;;
8331;SDS011;4203;48.144;14.118;2023-06-22T06:47:39;6.45;;;4.82;;
8331;SDS011;4203;48.144;14.118;2023-06-22T06:50:07;10.80;;;4.53;;
8331;SDS011;4203;48.144;14.118;2023-06-22T06:52:36;7.32;;;4.90;;
8331;SDS011;4203;48.144;14.118;2023-06-22T06:55:03;7.78;;;5.05;;
8331;SDS011;4203;48.144;14.118;2023-06-22T06:57:33;7.65;;;5.35;;
8331;SDS011;4203;48.144;14.118;2023-06-22T07:00:02;12.73;;;5.43;;
8331;SDS011;4203;48.144;14.118;2023-06-22T07:02:34;9.80;;;4.90;;
8331;SDS011;4203;48.144;14.118;2023-06-22T07:08:26;11.90;;;4.80;;
8331;SDS011;4203;48.144;14.118;2023-06-22T07:10:54;10.25;;;5.32;;
8331;SDS011;4203;48.144;14.118;2023-06-22T07:13:21;10.88;;;4.90;;
8331;SDS011;4203;48.144;14.118;2023-06-22T07:15:48;10.75;;;4.97;;
8331;SDS011;4203;48.144;14.118;2023-06-22T07:18:16;9.38;;;4.70;;
8331;SDS011;4203;48.144;14.118;2023-06-22T07:20:43;9.95;;;5.60;;
8331;SDS011;4203;48.144;14.118;2023-06-22T07:23:10;6.18;;;4.30;;
8331;SDS011;4203;48.144;14.118;2023-06-22T07:25:38;8.02;;;4.50;;
8331;SDS011;4203;48.144;14.118;2023-06-22T07:28:06;8.40;;;4.35;;
8331;SDS011;4203;48.144;14.118;2023-06-22T07:30:34;9.93;;;4.40;;
8331;SDS011;4203;48.144;14.118;2023-06-22T07:33:01;11.30;;;5.13;;
8331;SDS011;4203;48.144;14.118;2023-06-22T07:35:31;7.25;;;4.50;;
8331;SDS011;4203;48.144;14.118;2023-06-22T07:37:58;9.13;;;4.30;;
8331;SDS011;4203;48.144;14.118;2023-06-22T07:40:26;7.18;;;4.70;;
8331;SDS011;4203;48.144;14.118;2023-06-22T07:42:54;8.75;;;4.53;;
8331;SDS011;4203;48.144;14.118;2023-06-22T07:45:21;7.93;;;4.55;;
8331;SDS011;4203;48.144;14.118;2023-06-22T07:47:49;14.77;;;5.05;;
8331;SDS011;4203;48.144;14.118;2023-06-22T07:50:16;7.75;;;4.82;;
8331;SDS011;4203;48.144;14.118;2023-06-22T07:52:43;6.55;;;4.28;;
8331;SDS011;4203;48.144;14.118;2023-06-22T07:55:11;8.55;;;4.25;;
8331;SDS011;4203;48.144;14.118;2023-06-22T07:57:39;6.53;;;4.50;;
8331;SDS011;4203;48.144;14.118;2023-06-22T08:00:09;12.45;;;4.55;;
8331;SDS011;4203;48.144;14.118;2023-06-22T08:02:39;8.77;;;4.40;;
8331;SDS011;4203;48.144;14.118;2023-06-22T08:05:07;9.88;;;4.85;;
8331;SDS011;4203;48.144;14.118;2023-06-22T08:07:35;5.75;;;4.50;;
8331;SDS011;4203;48.144;14.118;2023-06-22T08:10:04;8.00;;;4.15;;
8331;SDS011;4203;48.144;14.118;2023-06-22T08:12:32;4.60;;;4.20;;
8331;SDS011;4203;48.144;14.118;2023-06-22T08:14:59;7.97;;;5.00;;
8331;SDS011;4203;48.144;14.118;2023-06-22T08:17:27;7.57;;;4.68;;
8331;SDS011;4203;48.144;14.118;2023-06-22T08:19:56;7.22;;;4.15;;
8331;SDS011;4203;48.144;14.118;2023-06-22T08:22:23;6.45;;;4.25;;
8331;SDS011;4203;48.144;14.118;2023-06-22T08:24:50;6.07;;;4.25;;
8331;SDS011;4203;48.144;14.118;2023-06-22T08:27:17;10.20;;;4.65;;
8331;SDS011;4203;48.144;14.118;2023-06-22T08:29:46;6.03;;;4.40;;
8331;SDS011;4203;48.144;14.118;2023-06-22T08:32:14;7.18;;;4.65;;
8331;SDS011;4203;48.144;14.118;2023-06-22T08:34:43;6.22;;;4.55;;
8331;SDS011;4203;48.144;14.118;2023-06-22T08:37:10;9.77;;;4.75;;
8331;SDS011;4203;48.144;14.118;2023-06-22T08:39:37;10.60;;;4.65;;
8331;SDS011;4203;48.144;14.118;2023-06-22T08:42:05;9.55;;;4.88;;
8331;SDS011;4203;48.144;14.118;2023-06-22T08:44:33;12.45;;;5.40;;
8331;SDS011;4203;48.144;14.118;2023-06-22T08:47:00;8.68;;;4.70;;
8331;SDS011;4203;48.144;14.118;2023-06-22T08:49:28;11.20;;;4.50;;
8331;SDS011;4203;48.144;14.118;2023-06-22T08:51:57;6.53;;;4.60;;
8331;SDS011;4203;48.144;14.118;2023-06-22T08:54:24;5.30;;;4.80;;
8331;SDS011;4203;48.144;14.118;2023-06-22T08:56:51;10.32;;;5.10;;
8331;SDS011;4203;48.144;14.118;2023-06-22T08:59:18;12.90;;;4.55;;
8331;SDS011;4203;48.144;14.118;2023-06-22T09:01:45;9.48;;;4.57;;
8331;SDS011;4203;48.144;14.118;2023-06-22T09:04:13;10.70;;;5.40;;
8331;SDS011;4203;48.144;14.118;2023-06-22T09:06:41;8.77;;;4.57;;
8331;SDS011;4203;48.144;14.118;2023-06-22T09:09:13;10.73;;;4.50;;
8331;SDS011;4203;48.144;14.118;2023-06-22T09:11:42;6.35;;;4.85;;
8331;SDS011;4203;48.144;14.118;2023-06-22T09:14:10;7.15;;;4.40;;
8331;SDS011;4203;48.144;14.118;2023-06-22T09:16:37;8.65;;;4.63;;
8331;SDS011;4203;48.144;14.118;2023-06-22T09:19:05;8.70;;;4.57;;
8331;SDS011;4203;48.144;14.118;2023-06-22T09:21:32;10.65;;;5.03;;
8331;SDS011;4203;48.144;14.118;2023-06-22T09:24:00;7.40;;;4.63;;
8331;SDS011;4203;48.144;14.118;2023-06-22T09:26:29;8.95;;;4.15;;
8331;SDS011;4203;48.144;14.118;2023-06-22T09:28:56;9.60;;;4.95;;
8331;SDS011;4203;48.144;14.118;2023-06-22T09:31:24;8.30;;;4.95;;
8331;SDS011;4203;48.144;14.118;2023-06-22T09:33:52;8.25;;;4.68;;
8331;SDS011;4203;48.144;14.118;2023-06-22T09:36:20;4.97;;;4.18;;
8331;SDS011;4203;48.144;14.118;2023-06-22T09:38:47;6.82;;;4.70;;
8331;SDS011;4203;48.144;14.118;2023-06-22T09:41:21;5.78;;;4.53;;
8331;SDS011;4203;48.144;14.118;2023-06-22T09:43:49;6.75;;;4.35;;
8331;SDS011;4203;48.144;14.118;2023-06-22T09:46:17;11.23;;;3.97;;
8331;SDS011;4203;48.144;14.118;2023-06-22T09:48:46;12.32;;;5.07;;
8331;SDS011;4203;48.144;14.118;2023-06-22T09:51:14;10.15;;;4.70;;
8331;SDS011;4203;48.144;14.118;2023-06-22T09:53:41;7.53;;;4.43;;
8331;SDS011;4203;48.144;14.118;2023-06-22T09:56:09;11.45;;;4.50;;
8331;SDS011;4203;48.144;14.118;2023-06-22T09:58:40;8.68;;;4.70;;
8331;SDS011;4203;48.144;14.118;2023-06-22T10:01:09;11.27;;;4.65;;
8331;SDS011;4203;48.144;14.118;2023-06-22T10:03:37;4.80;;;4.38;;
8331;SDS011;4203;48.144;14.118;2023-06-22T10:06:04;7.60;;;4.70;;
8331;SDS011;4203;48.144;14.118;2023-06-22T10:08:31;9.85;;;4.32;;
8331;SDS011;4203;48.144;14.118;2023-06-22T10:10:58;10.02;;;4.30;;
8331;SDS011;4203;48.144;14.118;2023-06-22T10:13:25;10.05;;;4.57;;
8331;SDS011;4203;48.144;14.118;2023-06-22T10:15:52;8.15;;;4.50;;
8331;SDS011;4203;48.144;14.118;2023-06-22T10:18:21;9.48;;;4.90;;
8331;SDS011;4203;48.144;14.118;2023-06-22T10:20:49;8.50;;;4.70;;
8331;SDS011;4203;48.144;14.118;2023-06-22T10:23:17;8.85;;;4.70;;
8331;SDS011;4203;48.144;14.118;2023-06-22T10:25:44;7.32;;;4.65;;
8331;SDS011;4203;48.144;14.118;2023-06-22T10:28:12;8.18;;;4.80;;
8331;SDS011;4203;48.144;14.118;2023-06-22T10:30:39;9.65;;;5.10;;
8331;SDS011;4203;48.144;14.118;2023-06-22T10:33:07;8.75;;;4.93;;
8331;SDS011;4203;48.144;14.118;2023-06-22T10:35:36;13.02;;;4.80;;
8331;SDS011;4203;48.144;14.118;2023-06-22T10:38:04;8.25;;;5.10;;
8331;SDS011;4203;48.144;14.118;2023-06-22T10:40:31;13.10;;;5.40;;
8331;SDS011;4203;48.144;14.118;2023-06-22T10:42:58;11.60;;;4.60;;
8331;SDS011;4203;48.144;14.118;2023-06-22T10:45:26;11.90;;;5.28;;
8331;SDS011;4203;48.144;14.118;2023-06-22T10:47:53;7.00;;;4.80;;
8331;SDS011;4203;48.144;14.118;2023-06-22T10:50:20;14.60;;;5.22;;
8331;SDS011;4203;48.144;14.118;2023-06-22T10:52:50;9.60;;;4.90;;
8331;SDS011;4203;48.144;14.118;2023-06-22T10:55:18;9.73;;;4.80;;
8331;SDS011;4203;48.144;14.118;2023-06-22T10:57:45;12.30;;;4.68;;
8331;SDS011;4203;48.144;14.118;2023-06-22T11:00:12;9.68;;;4.75;;
8331;SDS011;4203;48.144;14.118;2023-06-22T11:02:40;11.05;;;5.35;;
8331;SDS011;4203;48.144;14.118;2023-06-22T11:05:08;10.50;;;4.97;;
8331;SDS011;4203;48.144;14.118;2023-06-22T11:07:35;11.48;;;5.10;;
8331;SDS011;4203;48.144;14.118;2023-06-22T11:10:05;7.70;;;4.85;;
8331;SDS011;4203;48.144;14.118;2023-06-22T11:12:33;12.23;;;5.18;;
8331;SDS011;4203;48.144;14.118;2023-06-22T11:15:00;9.23;;;4.93;;
8331;SDS011;4203;48.144;14.118;2023-06-22T11:17:28;7.32;;;5.00;;
8331;SDS011;4203;48.144;14.118;2023-06-22T11:19:55;13.05;;;5.38;;
8331;SDS011;4203;48.144;14.118;2023-06-22T11:22:22;9.05;;;4.78;;
8331;SDS011;4203;48.144;14.118;2023-06-22T11:24:49;8.32;;;5.25;;
8331;SDS011;4203;48.144;14.118;2023-06-22T11:27:18;10.18;;;5.10;;
8331;SDS011;4203;48.144;14.118;2023-06-22T11:29:45;9.32;;;5.03;;
8331;SDS011;4203;48.144;14.118;2023-06-22T11:32:12;8.57;;;4.72;;
8331;SDS011;4203;48.144;14.118;2023-06-22T11:34:39;14.05;;;5.80;;
8331;SDS011;4203;48.144;14.118;2023-06-22T11:37:06;12.90;;;5.43;;
8331;SDS011;4203;48.144;14.118;2023-06-22T11:39:34;11.05;;;5.35;;
8331;SDS011;4203;48.144;14.118;2023-06-22T11:42:01;13.63;;;5.20;;
8331;SDS011;4203;48.144;14.118;2023-06-22T11:44:29;8.65;;;5.07;;
8331;SDS011;4203;48.144;14.118;2023-06-22T11:46:56;11.07;;;4.97;;
8331;SDS011;4203;48.144;14.118;2023-06-22T11:49:26;12.82;;;5.13;;
8331;SDS011;4203;48.144;14.118;2023-06-22T11:51:53;10.93;;;5.63;;
8331;SDS011;4203;48.144;14.118;2023-06-22T11:54:20;9.30;;;5.30;;
8331;SDS011;4203;48.144;14.118;2023-06-22T11:56:47;8.85;;;5.22;;
8331;SDS011;4203;48.144;14.118;2023-06-22T11:59:14;14.82;;;5.35;;
8331;SDS011;4203;48.144;14.118;2023-06-22T12:01:43;10.00;;;5.03;;
8331;SDS011;4203;48.144;14.118;2023-06-22T12:04:10;11.90;;;5.07;;
8331;SDS011;4203;48.144;14.118;2023-06-22T12:06:37;11.65;;;5.28;;
8331;SDS011;4203;48.144;14.118;2023-06-22T12:09:07;8.70;;;5.45;;
8331;SDS011;4203;48.144;14.118;2023-06-22T12:11:34;8.15;;;5.38;;
8331;SDS011;4203;48.144;14.118;2023-06-22T12:14:01;11.07;;;5.32;;
8331;SDS011;4203;48.144;14.118;2023-06-22T12:16:28;15.07;;;5.22;;
8331;SDS011;4203;48.144;14.118;2023-06-22T12:18:57;10.15;;;6.15;;
8331;SDS011;4203;48.144;14.118;2023-06-22T12:21:24;16.35;;;5.30;;
8331;SDS011;4203;48.144;14.118;2023-06-22T12:23:51;9.02;;;5.18;;
8331;SDS011;4203;48.144;14.118;2023-06-22T12:26:18;9.70;;;4.97;;
8331;SDS011;4203;48.144;14.118;2023-06-22T12:28:45;8.32;;;5.35;;
8331;SDS011;4203;48.144;14.118;2023-06-22T12:31:14;12.85;;;5.43;;
8331;SDS011;4203;48.144;14.118;2023-06-22T12:33:41;12.80;;;5.70;;
8331;SDS011;4203;48.144;14.118;2023-06-22T12:36:10;9.25;;;5.43;;
8331;SDS011;4203;48.144;14.118;2023-06-22T12:38:37;12.13;;;5.47;;
8331;SDS011;4203;48.144;14.118;2023-06-22T12:41:04;12.27;;;5.60;;
8331;SDS011;4203;48.144;14.118;2023-06-22T12:43:31;13.52;;;5.22;;
8331;SDS011;4203;48.144;14.118;2023-06-22T12:45:58;11.68;;;6.10;;
8331;SDS011;4203;48.144;14.118;2023-06-22T12:48:25;8.48;;;5.72;;
8331;SDS011;4203;48.144;14.118;2023-06-22T12:50:53;10.48;;;6.03;;
8331;SDS011;4203;48.144;14.118;2023-06-22T12:53:22;9.50;;;5.85;;
8331;SDS011;4203;48.144;14.118;2023-06-22T12:55:52;12.73;;;5.90;;
8331;SDS011;4203;48.144;14.118;2023-06-22T12:58:19;13.20;;;6.15;;
8331;SDS011;4203;48.144;14.118;2023-06-22T13:00:47;13.32;;;5.85;;
8331;SDS011;4203;48.144;14.118;2023-06-22T13:03:14;9.70;;;5.70;;
8331;SDS011;4203;48.144;14.118;2023-06-22T13:05:41;12.55;;;5.90;;
8331;SDS011;4203;48.144;14.118;2023-06-22T13:08:08;12.38;;;6.07;;
8331;SDS011;4203;48.144;14.118;2023-06-22T13:10:37;15.88;;;6.18;;
8331;SDS011;4203;48.144;14.118;2023-06-22T13:13:04;11.05;;;5.70;;
8331;SDS011;4203;48.144;14.118;2023-06-22T13:15:31;9.07;;;5.30;;
8331;SDS011;4203;48.144;14.118;2023-06-22T13:17:59;8.35;;;5.40;;
8331;SDS011;4203;48.144;14.118;2023-06-22T13:20:26;10.10;;;5.57;;
8331;SDS011;4203;48.144;14.118;2023-06-22T13:22:55;11.65;;;5.90;;
8331;SDS011;4203;48.144;14.118;2023-06-22T13:25:22;10.30;;;6.00;;
8331;SDS011;4203;48.144;14.118;2023-06-22T13:27:53;10.80;;;5.65;;
8331;SDS011;4203;48.144;14.118;2023-06-22T13:30:20;10.10;;;5.65;;
8331;SDS011;4203;48.144;14.118;2023-06-22T13:32:47;6.40;;;5.53;;
8331;SDS011;4203;48.144;14.118;2023-06-22T13:35:14;12.80;;;5.82;;
8331;SDS011;4203;48.144;14.118;2023-06-22T13:37:41;15.30;;;6.05;;
8331;SDS011;4203;48.144;14.118;2023-06-22T13:40:09;10.77;;;5.78;;
8331;SDS011;4203;48.144;14.118;2023-06-22T13:42:36;13.10;;;6.15;;
8331;SDS011;4203;48.144;14.118;2023-06-22T13:45:06;11.50;;;5.80;;
8331;SDS011;4203;48.144;14.118;2023-06-22T13:47:34;9.10;;;5.45;;
8331;SDS011;4203;48.144;14.118;2023-06-22T13:50:01;6.53;;;5.80;;
8331;SDS011;4203;48.144;14.118;2023-06-22T13:52:28;10.40;;;5.90;;
8331;SDS011;4203;48.144;14.118;2023-06-22T13:54:55;10.43;;;6.05;;
8331;SDS011;4203;48.144;14.118;2023-06-22T13:57:22;9.93;;;5.85;;
8331;SDS011;4203;48.144;14.118;2023-06-22T13:59:50;10.32;;;6.03;;
8331;SDS011;4203;48.144;14.118;2023-06-22T14:02:18;9.25;;;5.70;;
8331;SDS011;4203;48.144;14.118;2023-06-22T14:04:46;17.00;;;6.28;;
8331;SDS011;4203;48.144;14.118;2023-06-22T14:07:13;12.07;;;6.45;;
8331;SDS011;4203;48.144;14.118;2023-06-22T14:09:40;10.20;;;6.10;;
8331;SDS011;4203;48.144;14.118;2023-06-22T14:12:07;14.68;;;5.97;;
8331;SDS011;4203;48.144;14.118;2023-06-22T14:14:35;11.80;;;5.90;;
8331;SDS011;4203;48.144;14.118;2023-06-22T14:17:03;9.23;;;6.10;;
8331;SDS011;4203;48.144;14.118;2023-06-22T14:19:32;10.02;;;6.28;;
8331;SDS011;4203;48.144;14.118;2023-06-22T14:21:59;12.38;;;6.40;;
8331;SDS011;4203;48.144;14.118;2023-06-22T14:24:26;13.27;;;6.53;;
8331;SDS011;4203;48.144;14.118;2023-06-22T14:26:53;15.70;;;6.20;;
8331;SDS011;4203;48.144;14.118;2023-06-22T14:29:21;13.85;;;7.28;;
8331;SDS011;4203;48.144;14.118;2023-06-22T14:31:48;15.40;;;6.97;;
8331;SDS011;4203;48.144;14.118;2023-06-22T14:34:15;11.82;;;6.85;;
8331;SDS011;4203;48.144;14.118;2023-06-22T14:36:44;12.38;;;7.22;;
8331;SDS011;4203;48.144;14.118;2023-06-22T14:39:11;9.80;;;6.78;;
8331;SDS011;4203;48.144;14.118;2023-06-22T14:41:38;15.38;;;6.82;;
8331;SDS011;4203;48.144;14.118;2023-06-22T14:44:05;13.63;;;7.28;;
8331;SDS011;4203;48.144;14.118;2023-06-22T14:46:32;9.55;;;7.65;;
8331;SDS011;4203;48.144;14.118;2023-06-22T14:49:00;11.38;;;7.03;;
8331;SDS011;4203;48.144;14.118;2023-06-22T14:51:27;9.80;;;7.68;;
8331;SDS011;4203;48.144;14.118;2023-06-22T14:53:56;11.90;;;7.45;;
8331;SDS011;4203;48.144;14.118;2023-06-22T14:56:23;10.38;;;6.97;;
8331;SDS011;4203;48.144;14.118;2023-06-22T14:58:50;12.32;;;7.68;;
8331;SDS011;4203;48.144;14.118;2023-06-22T15:01:17;13.50;;;7.55;;
8331;SDS011;4203;48.144;14.118;2023-06-22T15:03:44;12.15;;;7.72;;